Time;durP1;ratioP1;P1;durP2;ratioP2;P2;SDS_P1;SDS_P2;PMS_P1;PMS_P2;Temp;Humidity;BMP_temperature;BMP_pressure;BME280_temperature;BME280_humidity;BME280_pressure;Samples;Min_cycle;Max_cycle;Signal;HPM_P1;HPM_P2
2022/05/13 00:00:42;;;;;;;;;;;25.10;98.20;;;;;;5049487;28;19936;-61
2022/05/13 00:03:10;;;;;;;;;;;25.10;98.20;;;;;;5021535;28;19953;-62
2022/05/13 00:05:37;;;;;;;;;;;25.00;98.20;;;;;;5050405;28;19928;-59
2022/05/13 00:08:04;;;;;;;;;;;25.10;98.60;;;;;;5042325;28;20312;-60
2022/05/13 00:10:32;;;;;;;;;;;25.10;98.30;;;;;;5046784;28;19932;-61
2022/05/13 00:12:59;;;;;;;;;;;25.00;98.30;;;;;;5046700;28;20399;-61
2022/05/13 00:15:26;;;;;;;;;;;25.00;98.30;;;;;;5049342;28;19925;-61
2022/05/13 00:17:54;;;;;;;;;;;25.00;98.30;;;;;;5051706;28;19932;-61
2022/05/13 00:20:22;;;;;;;;;;;25.00;98.40;;;;;;5040547;28;19967;-60
2022/05/13 00:22:52;;;;;;;;;;;25.00;98.50;;;;;;5042404;28;19925;-61
2022/05/13 00:25:21;;;;;;;;;;;25.00;98.50;;;;;;5032076;28;19933;-62
2022/05/13 00:27:48;;;;;;;;;;;25.00;98.50;;;;;;5044107;28;19928;-61
2022/05/13 00:30:16;;;;;;;;;;;25.00;98.60;;;;;;5043290;28;19936;-61
2022/05/13 00:32:47;;;;;;;;;;;25.00;98.70;;;;;;5044521;28;20315;-61
2022/05/13 00:35:14;;;;;;;;;;;25.00;98.70;;;;;;5052251;28;19929;-62
2022/05/13 00:37:41;;;;;;;;;;;24.90;98.70;;;;;;5038439;28;19929;-65
2022/05/13 00:40:09;;;;;;;;;;;25.00;98.80;;;;;;5051803;28;19925;-63
2022/05/13 00:42:36;;;;;;;;;;;25.00;98.80;;;;;;5047866;28;19929;-61
2022/05/13 00:45:04;;;;;;;;;;;25.00;99.00;;;;;;5043401;28;19936;-62
2022/05/13 00:47:31;;;;;;;;;;;24.90;98.90;;;;;;5048032;28;19947;-61
2022/05/13 00:49:59;;;;;;;;;;;25.00;99.00;;;;;;5030198;28;19925;-61
2022/05/13 00:52:27;;;;;;;;;;;24.90;99.00;;;;;;5041688;28;20376;-61
2022/05/13 00:54:54;;;;;;;;;;;24.90;99.10;;;;;;5044572;28;19936;-60
2022/05/13 00:57:22;;;;;;;;;;;24.90;99.20;;;;;;5047675;28;19928;-61
2022/05/13 00:59:51;;;;;;;;;;;24.90;99.30;;;;;;5053138;28;20261;-61
2022/05/13 01:02:18;;;;;;;;;;;24.90;99.30;;;;;;5044878;28;19936;-61
2022/05/13 01:04:45;;;;;;;;;;;25.00;99.40;;;;;;5040576;28;20311;-60
2022/05/13 01:07:15;;;;;;;;;;;24.90;99.10;;;;;;5047337;28;20300;-61
2022/05/13 01:09:44;;;;;;;;;;;24.90;99.20;;;;;;5045485;28;19925;-60
2022/05/13 01:12:14;;;;;;;;;;;24.90;99.10;;;;;;5045838;28;19933;-60
2022/05/13 01:14:45;;;;;;;;;;;24.90;99.10;;;;;;5045476;28;20495;-60
2022/05/13 01:20:03;;;;;;;;;;;24.90;99.10;;;;;;5052157;28;19940;-62
2022/05/13 01:22:37;;;;;;;;;;;24.90;99.40;;;;;;5044852;28;20192;-60
2022/05/13 01:25:05;;;;;;;;;;;24.90;99.10;;;;;;5046642;28;19924;-61
2022/05/13 01:27:32;;;;;;;;;;;24.90;99.00;;;;;;5044367;28;19928;-60
2022/05/13 01:29:59;;;;;;;;;;;24.90;99.00;;;;;;5040470;28;19932;-61
2022/05/13 01:32:26;;;;;;;;;;;24.90;99.00;;;;;;5043664;28;19932;-60
2022/05/13 01:34:53;;;;;;;;;;;24.90;98.90;;;;;;5026057;28;19936;-60
2022/05/13 01:37:20;;;;;;;;;;;24.80;98.80;;;;;;5042166;28;19929;-62
2022/05/13 01:39:47;;;;;;;;;;;24.80;98.90;;;;;;5046256;28;20525;-62
2022/05/13 01:42:14;;;;;;;;;;;24.80;98.80;;;;;;5047069;28;19932;-62
2022/05/13 01:44:41;;;;;;;;;;;24.80;98.90;;;;;;5044867;28;19933;-60
2022/05/13 01:47:09;;;;;;;;;;;24.80;98.90;;;;;;5053073;28;20324;-62
2022/05/13 01:49:36;;;;;;;;;;;24.90;98.80;;;;;;5043888;28;19925;-61
2022/05/13 01:52:03;;;;;;;;;;;24.80;98.80;;;;;;5035652;28;19929;-62
2022/05/13 01:54:30;;;;;;;;;;;24.80;98.70;;;;;;5048135;28;19944;-62
2022/05/13 01:56:57;;;;;;;;;;;24.80;98.80;;;;;;5046784;28;19935;-61
2022/05/13 01:59:24;;;;;;;;;;;24.80;98.80;;;;;;5055742;28;19929;-62
2022/05/13 02:01:51;;;;;;;;;;;24.80;99.10;;;;;;5047312;28;19939;-61
2022/05/13 02:04:19;;;;;;;;;;;24.80;98.90;;;;;;5043860;28;19951;-61
2022/05/13 02:06:46;;;;;;;;;;;24.80;99.00;;;;;;5044488;28;20335;-61
2022/05/13 02:09:13;;;;;;;;;;;24.80;99.00;;;;;;5051011;28;20303;-61
2022/05/13 02:11:40;;;;;;;;;;;24.80;99.10;;;;;;5038770;28;19955;-61
2022/05/13 02:14:08;;;;;;;;;;;24.80;99.20;;;;;;5043134;28;19933;-60
2022/05/13 02:16:35;;;;;;;;;;;24.80;99.10;;;;;;5045892;28;19924;-60
2022/05/13 02:19:03;;;;;;;;;;;24.80;99.00;;;;;;5041135;28;20024;-62
2022/05/13 02:21:30;;;;;;;;;;;24.80;98.90;;;;;;5040567;28;20308;-61
2022/05/13 02:23:57;;;;;;;;;;;24.80;99.30;;;;;;5043115;28;20731;-60
2022/05/13 02:26:24;;;;;;;;;;;24.80;99.10;;;;;;5048862;28;19936;-61
2022/05/13 02:28:51;;;;;;;;;;;24.80;99.10;;;;;;5051714;28;19932;-61
2022/05/13 02:31:18;;;;;;;;;;;24.80;99.00;;;;;;5048134;28;19928;-62
2022/05/13 02:33:46;;;;;;;;;;;24.80;99.10;;;;;;5040151;28;19940;-63
2022/05/13 02:36:14;;;;;;;;;;;24.70;99.10;;;;;;5045558;28;19925;-61
2022/05/13 02:38:41;;;;;;;;;;;24.70;99.10;;;;;;5045887;28;19931;-61
2022/05/13 02:41:14;;;;;;;;;;;24.70;99.00;;;;;;5048343;28;19929;-61
2022/05/13 02:43:46;;;;;;;;;;;24.70;99.10;;;;;;5045862;28;19979;-61
2022/05/13 02:46:15;;;;;;;;;;;24.70;99.00;;;;;;5024820;28;19932;-61
2022/05/13 02:48:43;;;;;;;;;;;24.80;99.10;;;;;;5037430;28;19936;-60
2022/05/13 02:51:10;;;;;;;;;;;24.70;99.10;;;;;;5045166;28;19940;-61
2022/05/13 02:53:38;;;;;;;;;;;24.70;99.00;;;;;;5050910;28;19930;-61
2022/05/13 02:56:07;;;;;;;;;;;24.70;99.00;;;;;;5044561;28;19979;-62
2022/05/13 02:58:34;;;;;;;;;;;24.70;99.20;;;;;;5049664;28;20016;-61
2022/05/13 03:01:02;;;;;;;;;;;24.70;99.10;;;;;;5042096;28;19967;-61
2022/05/13 03:03:33;;;;;;;;;;;24.70;99.10;;;;;;5045245;28;19933;-62
2022/05/13 03:06:00;;;;;;;;;;;24.70;99.00;;;;;;5046534;28;19936;-62
2022/05/13 03:08:27;;;;;;;;;;;24.70;99.00;;;;;;5039518;28;19929;-61
2022/05/13 03:10:54;;;;;;;;;;;24.70;99.00;;;;;;5047273;28;19944;-63
2022/05/13 03:13:21;;;;;;;;;;;24.70;99.10;;;;;;5041773;28;19929;-61
2022/05/13 03:15:48;;;;;;;;;;;24.70;99.00;;;;;;5050689;28;20404;-62
2022/05/13 03:18:15;;;;;;;;;;;24.70;99.00;;;;;;5026179;28;19928;-60
2022/05/13 03:20:43;;;;;;;;;;;24.60;99.00;;;;;;5039103;28;19936;-61
2022/05/13 03:23:10;;;;;;;;;;;24.60;99.00;;;;;;5034123;28;19929;-61
2022/05/13 03:25:37;;;;;;;;;;;24.60;99.10;;;;;;5048444;28;19929;-61
2022/05/13 03:28:04;;;;;;;;;;;24.60;99.10;;;;;;5047910;28;19928;-60
2022/05/13 03:30:31;;;;;;;;;;;24.60;99.10;;;;;;5053012;28;19931;-62
2022/05/13 03:32:58;;;;;;;;;;;24.60;99.30;;;;;;5036185;28;19933;-61
2022/05/13 03:35:26;;;;;;;;;;;24.60;99.30;;;;;;5030099;28;20301;-61
2022/05/13 03:37:53;;;;;;;;;;;24.60;99.40;;;;;;5041791;28;20395;-61
2022/05/13 03:40:20;;;;;;;;;;;24.60;99.30;;;;;;5047935;28;19932;-61
2022/05/13 03:42:47;;;;;;;;;;;24.60;99.20;;;;;;5045661;28;19929;-61
2022/05/13 03:45:16;;;;;;;;;;;24.60;99.20;;;;;;5050254;28;19939;-63
2022/05/13 03:47:44;;;;;;;;;;;24.60;99.20;;;;;;5039017;28;20404;-61
2022/05/13 03:50:12;;;;;;;;;;;24.60;99.10;;;;;;5050253;28;19924;-59
2022/05/13 03:52:40;;;;;;;;;;;24.60;98.90;;;;;;5059337;28;19929;-62
2022/05/13 03:55:07;;;;;;;;;;;24.60;98.80;;;;;;5052605;28;19939;-61
2022/05/13 03:57:34;;;;;;;;;;;24.60;98.70;;;;;;5039129;28;19932;-63
2022/05/13 04:00:03;;;;;;;;;;;24.60;98.60;;;;;;5063146;28;20411;-61
2022/05/13 04:02:30;;;;;;;;;;;24.60;98.50;;;;;;5041396;28;19936;-61
2022/05/13 04:10:29;;;;;;;;;;;24.50;93.10;;;;;;5053274;28;20020;-59
2022/05/13 04:18:28;;;;;;;;;;;23.40;86.30;;;;;;5049580;28;20415;-64
2022/05/13 04:20:55;;;;;;;;;;;23.10;84.10;;;;;;5051130;28;19936;-62
2022/05/13 04:23:23;;;;;;;;;;;22.90;83.10;;;;;;5043365;28;19943;-62
2022/05/13 04:25:50;;;;;;;;;;;22.80;84.50;;;;;;5056944;28;20590;-63
2022/05/13 04:28:17;;;;;;;;;;;22.60;83.60;;;;;;5034712;28;19929;-60
2022/05/13 04:30:44;;;;;;;;;;;22.40;84.30;;;;;;5042097;28;19925;-58
2022/05/13 04:33:12;;;;;;;;;;;22.40;84.50;;;;;;5057021;28;20449;-57
2022/05/13 04:35:39;;;;;;;;;;;22.60;85.90;;;;;;5048205;28;20235;-58
2022/05/13 04:38:07;;;;;;;;;;;22.90;86.40;;;;;;5048137;28;19929;-60
2022/05/13 04:40:34;;;;;;;;;;;23.10;88.10;;;;;;5044967;28;19929;-59
2022/05/13 04:43:02;;;;;;;;;;;23.30;87.70;;;;;;5027408;28;20360;-59
2022/05/13 04:45:30;;;;;;;;;;;23.40;87.50;;;;;;5063487;28;19924;-57
2022/05/13 04:48:17;;;;;;;;;;;23.50;86.90;;;;;;5044872;28;19929;-57
2022/05/13 04:50:44;;;;;;;;;;;23.50;86.80;;;;;;5049386;28;19925;-59
2022/05/13 04:53:11;;;;;;;;;;;23.60;86.80;;;;;;5050261;28;19943;-58
2022/05/13 04:55:40;;;;;;;;;;;23.70;86.50;;;;;;5045783;28;19926;-58
2022/05/13 04:58:07;;;;;;;;;;;23.70;86.20;;;;;;5040108;28;19928;-59
2022/05/13 05:00:35;;;;;;;;;;;23.70;85.70;;;;;;5045363;28;20431;-57
2022/05/13 05:03:02;;;;;;;;;;;23.80;85.80;;;;;;5061035;28;20243;-56
2022/05/13 05:05:29;;;;;;;;;;;23.80;86.00;;;;;;5067133;28;20411;-57
2022/05/13 05:07:56;;;;;;;;;;;23.80;86.00;;;;;;5048139;28;19931;-59
2022/05/13 05:10:23;;;;;;;;;;;23.90;86.10;;;;;;5050268;28;19955;-58
2022/05/13 05:12:54;;;;;;;;;;;23.90;86.40;;;;;;5044005;28;19924;-55
2022/05/13 05:15:22;;;;;;;;;;;24.00;86.50;;;;;;5037130;28;19936;-59
2022/05/13 05:17:49;;;;;;;;;;;24.00;86.70;;;;;;5046774;28;19936;-58
2022/05/13 05:20:17;;;;;;;;;;;24.00;87.10;;;;;;5046353;28;19940;-58
2022/05/13 05:22:44;;;;;;;;;;;24.00;87.70;;;;;;5051876;28;19928;-57
2022/05/13 05:25:12;;;;;;;;;;;24.00;88.10;;;;;;5042135;28;19925;-57
2022/05/13 05:27:39;;;;;;;;;;;24.00;88.80;;;;;;5043532;28;19929;-60
2022/05/13 05:30:07;;;;;;;;;;;24.00;90.00;;;;;;5044403;28;19929;-59
2022/05/13 05:32:36;;;;;;;;;;;24.10;90.50;;;;;;5043605;28;19929;-58
2022/05/13 05:35:04;;;;;;;;;;;24.10;91.10;;;;;;5050288;28;19940;-61
2022/05/13 05:37:31;;;;;;;;;;;24.10;91.80;;;;;;5045387;28;19939;-59
2022/05/13 05:39:58;;;;;;;;;;;24.10;92.20;;;;;;5047135;28;19925;-59
2022/05/13 05:42:25;;;;;;;;;;;24.10;92.60;;;;;;5052281;28;19936;-58
2022/05/13 05:44:52;;;;;;;;;;;24.20;93.30;;;;;;5051688;28;19936;-63
2022/05/13 05:47:21;;;;;;;;;;;24.10;93.80;;;;;;5048377;28;19929;-63
2022/05/13 05:49:48;;;;;;;;;;;24.20;95.80;;;;;;5050517;28;19935;-65
2022/05/13 05:52:16;;;;;;;;;;;24.20;96.60;;;;;;5050055;28;19937;-63
2022/05/13 05:57:31;;;;;;;;;;;24.20;97.00;;;;;;5049910;28;20380;-63
2022/05/13 06:00:00;;;;;;;;;;;24.20;97.60;;;;;;5042664;28;19929;-59
2022/05/13 06:02:30;;;;;;;;;;;24.20;98.20;;;;;;5052204;28;19933;-59
2022/05/13 06:04:57;;;;;;;;;;;24.20;98.90;;;;;;5049377;28;19929;-62
2022/05/13 06:07:26;;;;;;;;;;;24.30;99.60;;;;;;5056232;28;20471;-63
2022/05/13 06:09:53;;;;;;;;;;;24.30;99.90;;;;;;5048654;28;19929;-63
2022/05/13 06:12:20;;;;;;;;;;;24.30;99.90;;;;;;5047882;28;20431;-63
2022/05/13 06:14:47;;;;;;;;;;;24.40;99.90;;;;;;5039515;28;19935;-55
2022/05/13 06:17:15;;;;;;;;;;;24.40;99.90;;;;;;5044495;28;20478;-61
2022/05/13 06:19:42;;;;;;;;;;;24.40;99.90;;;;;;5041865;28;19933;-59
2022/05/13 06:22:09;;;;;;;;;;;24.40;99.90;;;;;;5040892;28;19932;-58
2022/05/13 06:24:37;;;;;;;;;;;24.40;99.90;;;;;;5046600;28;19940;-59
2022/05/13 06:27:04;;;;;;;;;;;24.50;99.90;;;;;;5041360;28;20603;-57
2022/05/13 06:29:31;;;;;;;;;;;24.50;99.90;;;;;;5046482;28;19951;-59
2022/05/13 06:31:59;;;;;;;;;;;24.50;99.90;;;;;;5045979;28;19935;-60
2022/05/13 06:34:26;;;;;;;;;;;24.60;99.90;;;;;;5045124;28;19929;-58
2022/05/13 06:36:53;;;;;;;;;;;24.60;99.90;;;;;;5055124;28;19928;-58
2022/05/13 06:39:20;;;;;;;;;;;24.70;99.90;;;;;;5053592;28;20689;-60
2022/05/13 06:41:48;;;;;;;;;;;24.80;99.90;;;;;;5039945;28;19935;-58
2022/05/13 06:44:18;;;;;;;;;;;24.80;99.90;;;;;;5043992;28;19935;-59
2022/05/13 06:46:47;;;;;;;;;;;24.80;99.90;;;;;;5028112;28;19933;-63
2022/05/13 06:49:14;;;;;;;;;;;24.80;99.90;;;;;;5027724;28;20296;-59
2022/05/13 06:51:41;;;;;;;;;;;24.80;99.90;;;;;;5052745;28;19929;-59
2022/05/13 06:54:09;;;;;;;;;;;24.80;99.90;;;;;;5045373;28;19928;-61
2022/05/13 06:56:38;;;;;;;;;;;24.80;99.90;;;;;;5023209;28;20605;-60
2022/05/13 06:59:06;;;;;;;;;;;24.70;99.90;;;;;;5042159;28;19928;-57
2022/05/13 07:01:39;;;;;;;;;;;24.70;99.90;;;;;;5039561;28;19928;-61
2022/05/13 07:04:06;;;;;;;;;;;24.70;99.90;;;;;;5043312;28;19928;-61
2022/05/13 07:06:33;;;;;;;;;;;24.70;99.90;;;;;;5055991;28;19929;-60
2022/05/13 07:09:00;;;;;;;;;;;24.70;99.90;;;;;;5026899;28;20407;-62
2022/05/13 07:11:27;;;;;;;;;;;24.70;99.90;;;;;;5036912;28;19928;-63
2022/05/13 07:13:55;;;;;;;;;;;24.80;99.90;;;;;;5044305;28;20348;-61
2022/05/13 07:16:23;;;;;;;;;;;24.80;99.90;;;;;;5046066;28;20451;-61
2022/05/13 07:18:50;;;;;;;;;;;24.80;99.90;;;;;;5043323;28;19973;-60
2022/05/13 07:21:17;;;;;;;;;;;24.80;99.90;;;;;;5045032;28;20323;-62
2022/05/13 07:23:45;;;;;;;;;;;24.80;99.90;;;;;;5055835;28;19940;-62
2022/05/13 07:26:12;;;;;;;;;;;24.80;99.90;;;;;;5048662;28;19928;-65
2022/05/13 07:28:40;;;;;;;;;;;24.80;99.90;;;;;;5039378;28;19959;-62
2022/05/13 07:31:07;;;;;;;;;;;24.80;99.90;;;;;;5024130;28;19929;-62
2022/05/13 07:33:35;;;;;;;;;;;24.80;99.90;;;;;;5046165;28;20043;-62
2022/05/13 07:36:03;;;;;;;;;;;24.80;99.90;;;;;;5048994;28;19925;-59
2022/05/13 07:38:31;;;;;;;;;;;24.60;95.20;;;;;;5043620;28;19928;-61
2022/05/13 07:41:16;;;;;;;;;;;24.30;90.20;;;;;;5034532;28;19952;-60
2022/05/13 07:43:44;;;;;;;;;;;23.90;88.10;;;;;;5056792;28;19947;-61
2022/05/13 07:46:14;;;;;;;;;;;23.70;85.50;;;;;;5050370;28;20298;-56
2022/05/13 07:48:41;;;;;;;;;;;23.60;87.30;;;;;;5042713;28;19929;-58
2022/05/13 07:51:09;;;;;;;;;;;23.80;94.00;;;;;;5038636;28;19929;-58
2022/05/13 07:53:36;;;;;;;;;;;24.10;93.40;;;;;;5040209;28;19940;-58
2022/05/13 07:56:04;;;;;;;;;;;24.30;93.70;;;;;;5036493;28;19928;-59
2022/05/13 07:58:31;;;;;;;;;;;24.40;93.90;;;;;;5041171;28;19928;-57
2022/05/13 08:01:01;;;;;;;;;;;24.50;94.20;;;;;;5044389;28;19928;-55
2022/05/13 08:03:31;;;;;;;;;;;24.60;94.40;;;;;;5043137;28;19928;-60
2022/05/13 08:06:03;;;;;;;;;;;24.60;94.50;;;;;;5049124;28;19929;-56
2022/05/13 08:08:33;;;;;;;;;;;24.60;94.60;;;;;;5044885;28;19936;-60
2022/05/13 08:11:01;;;;;;;;;;;24.70;95.20;;;;;;5048496;28;20459;-59
2022/05/13 08:13:31;;;;;;;;;;;24.70;95.30;;;;;;5046436;28;19928;-57
2022/05/13 08:15:58;;;;;;;;;;;24.70;95.40;;;;;;5039942;28;19936;-57
2022/05/13 08:18:26;;;;;;;;;;;24.80;95.60;;;;;;5042160;28;19940;-57
2022/05/13 08:20:53;;;;;;;;;;;24.80;95.80;;;;;;5029479;28;19951;-58
2022/05/13 08:23:20;;;;;;;;;;;24.80;96.20;;;;;;5042900;28;19928;-57
2022/05/13 08:25:48;;;;;;;;;;;24.80;96.30;;;;;;5046181;28;19979;-59
2022/05/13 08:28:16;;;;;;;;;;;24.80;96.60;;;;;;5043105;28;19935;-58
2022/05/13 08:30:43;;;;;;;;;;;24.80;97.10;;;;;;5043909;28;19929;-59
2022/05/13 08:33:10;;;;;;;;;;;24.80;96.90;;;;;;5050633;28;19962;-61
2022/05/13 08:35:40;;;;;;;;;;;24.80;97.10;;;;;;5055814;28;19928;-59
2022/05/13 08:38:09;;;;;;;;;;;24.60;90.80;;;;;;5053076;28;19928;-58
2022/05/13 08:40:38;;;;;;;;;;;24.20;86.90;;;;;;5052570;28;20556;-56
2022/05/13 08:43:17;;;;;;;;;;;23.90;90.00;;;;;;5056098;28;19939;-60
2022/05/13 08:45:49;;;;;;;;;;;23.80;83.60;;;;;;5048597;28;19943;-56
2022/05/13 08:48:18;;;;;;;;;;;23.70;85.10;;;;;;5040132;28;19936;-59
2022/05/13 08:51:00;;;;;;;;;;;23.70;84.50;;;;;;5043661;28;19929;-58
2022/05/13 08:53:30;;;;;;;;;;;23.60;83.10;;;;;;5042855;28;19928;-61
2022/05/13 08:56:00;;;;;;;;;;;23.50;85.60;;;;;;5057904;28;19928;-61
2022/05/13 08:58:29;;;;;;;;;;;23.60;87.50;;;;;;5051755;28;20329;-59
2022/05/13 09:00:58;;;;;;;;;;;23.60;82.90;;;;;;5050391;28;20430;-59
2022/05/13 09:03:31;;;;;;;;;;;23.60;80.00;;;;;;5037462;28;19933;-58
2022/05/13 09:06:06;;;;;;;;;;;23.50;81.60;;;;;;5043902;28;19928;-58
2022/05/13 09:08:42;;;;;;;;;;;23.50;82.10;;;;;;5034608;28;20457;-57
2022/05/13 09:11:12;;;;;;;;;;;23.40;80.00;;;;;;5025983;28;19933;-58
2022/05/13 09:13:48;;;;;;;;;;;23.30;76.80;;;;;;5052305;28;19948;-58
2022/05/13 09:16:21;;;;;;;;;;;23.30;78.30;;;;;;5053622;28;19948;-55
2022/05/13 09:18:55;;;;;;;;;;;23.30;80.60;;;;;;5058547;28;19935;-57
2022/05/13 09:21:22;;;;;;;;;;;23.40;80.60;;;;;;5051921;28;19933;-55
2022/05/13 09:23:49;;;;;;;;;;;23.30;78.70;;;;;;5047241;28;20961;-61
2022/05/13 09:26:18;;;;;;;;;;;23.30;78.50;;;;;;5057916;28;19928;-59
2022/05/13 09:29:18;;;;;;;;;;;23.30;81.80;;;;;;5058653;28;19933;-60
2022/05/13 09:31:54;;;;;;;;;;;23.30;80.20;;;;;;5018741;28;19989;-60
2022/05/13 09:34:24;;;;;;;;;;;23.30;76.90;;;;;;5045319;28;19929;-60
2022/05/13 09:36:52;;;;;;;;;;;23.20;77.30;;;;;;5034550;28;19929;-61
2022/05/13 09:39:24;;;;;;;;;;;23.20;76.80;;;;;;5053929;28;19939;-61
2022/05/13 09:41:55;;;;;;;;;;;23.20;79.60;;;;;;5042016;28;19929;-62
2022/05/13 09:44:26;;;;;;;;;;;23.20;81.50;;;;;;5052109;28;20548;-62
2022/05/13 09:47:11;;;;;;;;;;;23.20;80.60;;;;;;5046367;28;20039;-63
2022/05/13 09:50:00;;;;;;;;;;;23.20;79.70;;;;;;5036612;28;19929;-58
2022/05/13 09:52:34;;;;;;;;;;;23.20;78.50;;;;;;5046684;28;20321;-61
2022/05/13 09:55:13;;;;;;;;;;;23.20;79.60;;;;;;5046480;28;19925;-58
2022/05/13 09:57:42;;;;;;;;;;;23.20;78.40;;;;;;5048746;28;19936;-56
2022/05/13 10:00:18;;;;;;;;;;;23.20;77.00;;;;;;5032602;28;19943;-58
2022/05/13 10:02:47;;;;;;;;;;;23.20;77.50;;;;;;5037741;28;20624;-61
2022/05/13 10:05:15;;;;;;;;;;;23.10;77.10;;;;;;5037385;28;19929;-57
2022/05/13 10:07:49;;;;;;;;;;;23.10;75.30;;;;;;5015698;28;19936;-58
2022/05/13 10:16:21;;;;;;;;;;;23.30;80.30;;;;;;5039884;28;19932;-60
2022/05/13 10:18:55;;;;;;;;;;;23.70;79.90;;;;;;5047487;28;19952;-58
2022/05/13 10:21:25;;;;;;;;;;;23.90;80.00;;;;;;5040926;28;19928;-57
2022/05/13 10:24:04;;;;;;;;;;;23.90;80.10;;;;;;5042948;28;19936;-57
2022/05/13 10:26:35;;;;;;;;;;;24.00;80.50;;;;;;5046311;28;19929;-62
2022/05/13 10:29:23;;;;;;;;;;;24.10;81.30;;;;;;5025325;28;19944;-62
2022/05/13 10:31:50;;;;;;;;;;;24.10;83.00;;;;;;5041553;28;20026;-57
2022/05/13 10:34:29;;;;;;;;;;;24.10;83.20;;;;;;5036015;28;19928;-58
2022/05/13 10:37:14;;;;;;;;;;;24.20;83.60;;;;;;5040475;28;22099;-62
2022/05/13 10:39:48;;;;;;;;;;;24.20;84.80;;;;;;5045364;28;19935;-63
2022/05/13 10:42:15;;;;;;;;;;;24.20;84.80;;;;;;5033867;28;19928;-59
2022/05/13 10:45:02;;;;;;;;;;;24.20;85.60;;;;;;5032815;28;19939;-61
2022/05/13 10:47:54;;;;;;;;;;;24.20;85.90;;;;;;5064379;28;19944;-63
2022/05/13 10:50:23;;;;;;;;;;;24.20;86.00;;;;;;5045071;28;19936;-60
2022/05/13 10:52:54;;;;;;;;;;;24.20;87.20;;;;;;5035388;28;19940;-61
2022/05/13 10:55:31;;;;;;;;;;;24.20;86.90;;;;;;5045284;28;19948;-63
2022/05/13 10:58:13;;;;;;;;;;;24.20;87.00;;;;;;5045198;28;19952;-60
2022/05/13 11:00:46;;;;;;;;;;;24.20;87.60;;;;;;5033989;28;19925;-61
2022/05/13 11:03:22;;;;;;;;;;;24.20;87.40;;;;;;5044457;28;19929;-62
2022/05/13 11:05:56;;;;;;;;;;;24.20;87.40;;;;;;5020944;28;20502;-60
2022/05/13 11:08:26;;;;;;;;;;;24.10;87.30;;;;;;5048549;28;20407;-62
2022/05/13 11:11:02;;;;;;;;;;;24.20;87.30;;;;;;5040124;28;19929;-61
2022/05/13 11:13:33;;;;;;;;;;;24.20;87.20;;;;;;5041832;28;19948;-63
2022/05/13 11:16:01;;;;;;;;;;;24.20;87.40;;;;;;5040143;28;19929;-60
2022/05/13 11:18:31;;;;;;;;;;;24.20;87.60;;;;;;5034387;28;20059;-62
2022/05/13 11:21:06;;;;;;;;;;;24.20;88.00;;;;;;5030409;28;19924;-62
2022/05/13 11:25:54;;;;;;;;;;;24.20;88.20;;;;;;5056401;28;19928;-61
2022/05/13 11:26:37;;;;;;;;;;;24.20;88.40;;;;;;5042578;28;19936;-60
2022/05/13 11:29:07;;;;;;;;;;;24.20;88.90;;;;;;5037702;28;20375;-61
2022/05/13 11:31:47;;;;;;;;;;;24.20;89.50;;;;;;5034628;28;19925;-61
2022/05/13 11:34:20;;;;;;;;;;;24.20;89.90;;;;;;5047726;28;19924;-61
2022/05/13 11:36:54;;;;;;;;;;;24.20;90.10;;;;;;5037057;28;19924;-61
2022/05/13 11:39:21;;;;;;;;;;;24.20;90.30;;;;;;5033603;28;20138;-61
2022/05/13 11:42:04;;;;;;;;;;;24.20;90.40;;;;;;5054345;28;19929;-61
2022/05/13 11:44:50;;;;;;;;;;;24.20;90.60;;;;;;5045983;28;19929;-59
2022/05/13 11:47:26;;;;;;;;;;;24.20;90.80;;;;;;5033543;28;19925;-61
2022/05/13 11:49:55;;;;;;;;;;;24.20;91.00;;;;;;5028788;28;19929;-60
2022/05/13 11:52:44;;;;;;;;;;;24.20;91.10;;;;;;5044388;28;20416;-61
2022/05/13 11:55:14;;;;;;;;;;;24.20;91.20;;;;;;5059863;28;19936;-62
2022/05/13 11:57:46;;;;;;;;;;;24.20;91.40;;;;;;5049832;28;19939;-57
2022/05/13 12:00:23;;;;;;;;;;;24.20;91.50;;;;;;5038138;28;19930;-60
2022/05/13 12:02:52;;;;;;;;;;;24.20;91.60;;;;;;5038005;28;19932;-61
2022/05/13 12:05:19;;;;;;;;;;;24.20;91.70;;;;;;5043678;28;19939;-62
2022/05/13 12:08:08;;;;;;;;;;;24.20;91.60;;;;;;5042163;28;20374;-61
2022/05/13 12:10:45;;;;;;;;;;;24.10;91.60;;;;;;5042328;28;20390;-61
2022/05/13 12:13:21;;;;;;;;;;;24.10;91.50;;;;;;5049238;28;19929;-58
2022/05/13 12:16:13;;;;;;;;;;;24.10;91.10;;;;;;5043005;28;19932;-59
2022/05/13 12:18:49;;;;;;;;;;;24.10;91.00;;;;;;5049957;28;19940;-60
2022/05/13 12:21:17;;;;;;;;;;;24.10;91.00;;;;;;5034345;28;20004;-61
2022/05/13 12:23:55;;;;;;;;;;;24.10;90.90;;;;;;5054593;28;20336;-59
2022/05/13 12:26:43;;;;;;;;;;;24.10;90.70;;;;;;5048195;28;19935;-59
2022/05/13 12:29:39;;;;;;;;;;;24.10;90.50;;;;;;5047171;28;20475;-60
2022/05/13 12:32:09;;;;;;;;;;;24.00;90.00;;;;;;5009563;28;19929;-61
2022/05/13 12:37:43;;;;;;;;;;;24.10;87.80;;;;;;5046914;28;19929;-61
2022/05/13 12:40:36;;;;;;;;;;;24.00;86.70;;;;;;5047978;28;19936;-61
2022/05/13 12:43:31;;;;;;;;;;;24.10;86.50;;;;;;5049322;28;20451;-62
2022/05/13 12:46:00;;;;;;;;;;;24.10;85.70;;;;;;5043820;28;19936;-61
2022/05/13 12:48:28;;;;;;;;;;;24.10;85.60;;;;;;5047997;28;19929;-61
2022/05/13 12:51:11;;;;;;;;;;;24.20;85.00;;;;;;5053062;28;19929;-60
2022/05/13 12:53:43;;;;;;;;;;;24.10;83.90;;;;;;5054195;28;19929;-62
2022/05/13 12:56:13;;;;;;;;;;;24.20;84.00;;;;;;5043833;28;19929;-62
2022/05/13 12:58:42;;;;;;;;;;;24.20;83.80;;;;;;5054283;28;19935;-62
2022/05/13 13:01:10;;;;;;;;;;;24.20;83.00;;;;;;5051486;28;19933;-60
2022/05/13 13:03:39;;;;;;;;;;;24.20;82.60;;;;;;5053280;28;19936;-61
2022/05/13 13:06:11;;;;;;;;;;;24.20;82.70;;;;;;5050342;28;19928;-61
2022/05/13 13:08:39;;;;;;;;;;;24.30;82.40;;;;;;5054796;28;19935;-61
2022/05/13 13:11:14;;;;;;;;;;;24.20;82.10;;;;;;5036912;28;19936;-61
2022/05/13 13:13:55;;;;;;;;;;;24.30;82.00;;;;;;5049164;28;19939;-61
2022/05/13 13:16:35;;;;;;;;;;;24.30;82.00;;;;;;5040628;28;19935;-62
2022/05/13 13:19:04;;;;;;;;;;;24.30;81.90;;;;;;5049817;28;19928;-62
2022/05/13 13:21:31;;;;;;;;;;;24.30;81.10;;;;;;5049255;28;19925;-62
2022/05/13 13:24:00;;;;;;;;;;;24.40;81.40;;;;;;5056451;28;21363;-60
2022/05/13 13:26:27;;;;;;;;;;;24.40;81.40;;;;;;5060555;28;19937;-63
2022/05/13 13:28:55;;;;;;;;;;;24.40;81.10;;;;;;5053958;28;19928;-62
2022/05/13 13:31:23;;;;;;;;;;;24.40;80.80;;;;;;5037870;28;20032;-63
2022/05/13 13:33:55;;;;;;;;;;;24.40;80.40;;;;;;5040231;28;19936;-61
2022/05/13 13:36:27;;;;;;;;;;;24.40;80.20;;;;;;5039995;28;19936;-61
2022/05/13 13:39:00;;;;;;;;;;;24.50;79.90;;;;;;5046263;28;19925;-62
2022/05/13 13:41:29;;;;;;;;;;;24.50;79.40;;;;;;5028280;28;20846;-60
2022/05/13 13:43:57;;;;;;;;;;;24.50;79.00;;;;;;5038343;28;19929;-62
2022/05/13 13:46:28;;;;;;;;;;;24.50;78.70;;;;;;5057085;28;19929;-61
2022/05/13 13:48:57;;;;;;;;;;;24.50;78.40;;;;;;5054899;28;19925;-60
2022/05/13 13:51:24;;;;;;;;;;;24.50;78.00;;;;;;5041889;28;19990;-61
2022/05/13 13:54:00;;;;;;;;;;;24.60;77.90;;;;;;5045101;28;19929;-60
2022/05/13 13:56:29;;;;;;;;;;;24.60;77.70;;;;;;5040966;28;19936;-61
2022/05/13 13:59:05;;;;;;;;;;;24.60;78.40;;;;;;5039835;28;19924;-62
2022/05/13 14:01:33;;;;;;;;;;;24.60;77.50;;;;;;5044416;28;20279;-62
2022/05/13 14:04:06;;;;;;;;;;;24.60;77.40;;;;;;5041995;28;19936;-60
2022/05/13 14:06:33;;;;;;;;;;;24.70;77.50;;;;;;5041085;28;19933;-63
2022/05/13 14:09:02;;;;;;;;;;;24.70;77.30;;;;;;5043547;28;19948;-62
2022/05/13 14:11:32;;;;;;;;;;;24.70;77.00;;;;;;5026524;28;19949;-64
2022/05/13 14:14:20;;;;;;;;;;;24.70;77.00;;;;;;5036842;28;19952;-63
2022/05/13 14:16:50;;;;;;;;;;;24.80;76.40;;;;;;5041756;28;19944;-63
2022/05/13 14:19:21;;;;;;;;;;;24.80;76.40;;;;;;5035908;28;19952;-63
2022/05/13 14:22:03;;;;;;;;;;;24.80;76.40;;;;;;5039648;28;20388;-62
2022/05/13 14:24:31;;;;;;;;;;;24.80;76.40;;;;;;5049784;28;19928;-60
2022/05/13 14:27:04;;;;;;;;;;;24.80;76.60;;;;;;5041330;28;20316;-63
2022/05/13 14:29:32;;;;;;;;;;;24.90;77.00;;;;;;5041646;28;19924;-63
2022/05/13 14:32:05;;;;;;;;;;;24.90;76.00;;;;;;5039628;28;19928;-62
2022/05/13 14:34:33;;;;;;;;;;;25.00;75.50;;;;;;5044193;28;19929;-62
2022/05/13 14:37:02;;;;;;;;;;;25.00;75.50;;;;;;5042724;28;19935;-63
2022/05/13 14:39:49;;;;;;;;;;;25.10;75.90;;;;;;5040080;28;20400;-62
2022/05/13 14:42:22;;;;;;;;;;;25.10;76.30;;;;;;5038443;28;19928;-64
2022/05/13 14:44:52;;;;;;;;;;;25.10;76.00;;;;;;5047492;28;19929;-65
2022/05/13 14:47:25;;;;;;;;;;;25.20;75.50;;;;;;5054339;28;19940;-64
2022/05/13 14:49:56;;;;;;;;;;;25.20;75.20;;;;;;5032732;28;20444;-63
2022/05/13 14:52:39;;;;;;;;;;;25.30;75.20;;;;;;5039193;28;19928;-62
2022/05/13 14:55:26;;;;;;;;;;;25.30;75.30;;;;;;5040712;28;19929;-62
2022/05/13 14:57:55;;;;;;;;;;;25.40;75.50;;;;;;5042834;28;20300;-59
2022/05/13 15:00:24;;;;;;;;;;;25.30;75.60;;;;;;5039453;28;20311;-62